• Join FlightAware (Why Join?)
  • Login
  • US Flag 
10:46AM EDT


 

Airport Tracker/Info


-or-


 

Live Flight TrackerFlight Track Log ✈ N650GF ✈ 21-Mar-2014 ✈ KSLC - KSGU

Flight Track Log - Related Links

Times and Time Zones

All times are in EDT time to prevent confusion due to time zone crossing. See the N650GF flight status page for this flight to view local times or setup timezone preferences in your user account.

Time Position Orientation Groundspeed Altitude Reporting Facility
EDT Latitude Longitude Course Direction KTS MPH feet Rate Location/Type
01:27AM 40.6417 -112.2969 189° South 331 381 20,000  Level Salt Lake Center
01:28AM 40.5489 -112.3153 189° South 337 388 21,900 1,860 Climbing Salt Lake Center
01:29AM 40.4517 -112.3369 190° South 354 407 23,800 1,800 Climbing Salt Lake Center
01:30AM 40.3528 -112.3556 188° South 356 410 25,600 1,080 Climbing Salt Lake Center
01:31AM 40.2586 -112.4136 205° Southwest 381 438 26,000 180 Climbing Salt Lake Center
01:32AM 40.1528 -112.4719 203° Southwest 421 484 26,000  Level Salt Lake Center
01:33AM 40.0344 -112.5036 192° South 435 501 26,000  Level Salt Lake Center
01:34AM 39.9131 -112.5331 191° South 445 512 26,000  Level Salt Lake Center
01:35AM 39.7933 -112.5661 192° South 444 511 26,000  Level Salt Lake Center
01:36AM 39.6708 -112.5964 191° South 445 512 26,000  Level Salt Lake Center
01:37AM 39.5494 -112.6278 191° South 444 511 26,000  Level Salt Lake Center
01:38AM 39.4203 -112.6586 190° South 444 511 26,000  Level Salt Lake Center
01:39AM 39.2983 -112.6894 191° South 444 511 26,000  Level Salt Lake Center
01:40AM 39.1772 -112.7203 191° South 444 511 26,000  Level Salt Lake Center
01:41AM 39.0556 -112.7511 191° South 444 511 26,000  Level Salt Lake Center
01:42AM 38.9339 -112.7828 191° South 444 511 26,000  Level Salt Lake Center
01:43AM 38.8142 -112.8128 191° South 444 511 26,000  Level Salt Lake Center
01:44AM 38.6939 -112.8433 191° South 443 510 26,000  Level Salt Lake Center
01:45AM 38.5494 -112.8806 191° South 443 510 26,000  Level Salt Lake Center
01:46AM 38.4292 -112.9108 191° South 442 509 26,000  Level Salt Lake Center
01:47AM 38.3083 -112.9400 191° South 442 509 26,000 -1,020 Level Salt Lake Center
01:48AM 38.1911 -112.9692 191° South 435 501 24,000 -2,280 Descending Salt Lake Center
01:49AM 38.0747 -112.9983 191° South 432 497 21,500 -2,460 Descending Salt Lake Center
01:50AM 37.9611 -113.0264 191° South 428 493 19,100 -2,340 Descending Salt Lake Center
01:51AM 37.8508 -113.0528 191° South 418 481 16,800 -1,500 Descending Salt Lake Center
01:52AM 37.7542 -113.0800 193° South 376 433 16,100 -480 Descending Salt Lake Center
01:53AM 37.6664 -113.1167 198° South 345 397 15,900 -600 Descending Salt Lake Center
01:54AM 37.5983 -113.1447 198° South 332 382 15,100 -1,020 Descending Los Angeles Center
01:55AM 37.5161 -113.1775 198° South 323 372 14,100 -720 Descending Los Angeles Center
01:56AM 37.4500 -113.2094 201° Southwest 278 320 13,700 -1,260 Descending Los Angeles Center
01:57AM 37.3889 -113.2550 211° Southwest 259 298 11,600 -2,160 Descending Los Angeles Center
01:58AM 37.3153 -113.3097 211° Southwest 259 298 9,400 -1,920 Descending Los Angeles Center
01:59AM 37.2603 -113.3503 210° Southwest 240 276 7,800 -1,380 Descending Los Angeles Center
02:00AM 37.2083 -113.3889 211° Southwest 226 260 6,600 -1,200 Descending Los Angeles Center
02:01AM 37.1525 -113.4297 210° Southwest 226 260 5,400 -1,200 Descending Los Angeles Center